createdAt,value
2017-10-01T00:01:17.010Z,20.80
2017-10-01T00:03:44.586Z,20.67
2017-10-01T00:06:12.125Z,20.17
2017-10-01T00:08:39.710Z,20.20
2017-10-01T00:11:08.132Z,20.07
2017-10-01T00:13:35.696Z,19.73
2017-10-01T00:16:03.247Z,19.00
2017-10-01T00:18:30.775Z,18.70
2017-10-01T00:20:59.184Z,19.20
2017-10-01T00:23:26.758Z,18.30
2017-10-01T00:25:54.296Z,17.53
2017-10-01T00:28:21.841Z,18.73
2017-10-01T00:30:49.409Z,17.80
2017-10-01T00:33:16.953Z,17.90
2017-10-01T00:35:44.734Z,16.07
2017-10-01T00:38:12.295Z,16.10
2017-10-01T00:40:39.967Z,15.07
2017-10-01T00:43:07.513Z,15.47
2017-10-01T00:45:35.083Z,16.00
2017-10-01T00:48:02.649Z,15.83
2017-10-01T00:50:30.212Z,17.30
2017-10-01T00:52:58.546Z,15.23
2017-10-01T00:55:26.108Z,16.03
2017-10-01T00:57:53.745Z,15.50
2017-10-01T01:00:21.301Z,15.13
2017-10-01T01:02:48.870Z,16.50
2017-10-01T01:05:16.452Z,13.80
2017-10-01T01:07:44.001Z,14.67
2017-10-01T01:10:11.657Z,15.27
2017-10-01T01:12:39.197Z,16.00
2017-10-01T01:15:06.753Z,16.93
2017-10-01T01:17:34.336Z,16.77
2017-10-01T01:20:01.877Z,17.60
2017-10-01T01:22:29.437Z,17.97
2017-10-01T01:24:56.959Z,18.97
2017-10-01T01:27:25.381Z,20.40
2017-10-01T01:29:52.960Z,21.53
2017-10-01T01:32:20.488Z,23.77
2017-10-01T01:34:48.049Z,24.20
2017-10-01T01:37:15.604Z,23.30
2017-10-01T01:39:43.145Z,24.93
2017-10-01T01:42:10.706Z,27.40
2017-10-01T01:44:38.279Z,24.73
2017-10-01T01:47:05.820Z,29.90
2017-10-01T01:49:33.361Z,27.70
2017-10-01T01:52:00.901Z,30.37
2017-10-01T01:54:28.469Z,30.20
2017-10-01T01:56:56.118Z,31.37
2017-10-01T01:59:23.663Z,27.83
2017-10-01T02:01:51.210Z,28.87
2017-10-01T02:04:18.794Z,30.57
2017-10-01T02:06:46.337Z,29.57
2017-10-01T02:09:13.915Z,30.43
2017-10-01T02:11:41.465Z,33.37
2017-10-01T02:14:09.032Z,30.20
2017-10-01T02:16:36.589Z,31.33
2017-10-01T02:19:04.224Z,30.60
2017-10-01T02:21:31.811Z,33.30
2017-10-01T02:23:59.384Z,31.13
2017-10-01T02:26:27.700Z,36.20
2017-10-01T02:28:55.262Z,31.97
2017-10-01T02:31:22.816Z,31.67
2017-10-01T02:33:50.359Z,32.17
2017-10-01T02:36:18.032Z,31.80
2017-10-01T02:38:45.598Z,32.87
2017-10-01T02:41:13.906Z,32.80
2017-10-01T02:43:42.256Z,34.80
2017-10-01T02:46:09.815Z,31.37
2017-10-01T02:48:38.130Z,32.70
2017-10-01T02:51:05.689Z,33.63
2017-10-01T02:53:33.991Z,33.43
2017-10-01T02:56:02.332Z,35.00
2017-10-01T02:58:29.881Z,34.30
2017-10-01T03:00:57.443Z,32.80
2017-10-01T03:03:25.022Z,35.27
2017-10-01T03:05:52.578Z,34.03
2017-10-01T03:08:20.154Z,31.50
2017-10-01T03:10:48.465Z,32.37
2017-10-01T03:13:16.048Z,34.37
2017-10-01T03:15:43.807Z,31.53
2017-10-01T03:18:11.371Z,34.77
2017-10-01T03:20:39.022Z,36.53
2017-10-01T03:23:07.329Z,33.60
2017-10-01T03:25:34.909Z,34.30
2017-10-01T03:28:02.463Z,31.77
2017-10-01T03:30:30.061Z,32.43
2017-10-01T03:32:57.605Z,34.07
2017-10-01T03:35:25.174Z,32.80
2017-10-01T03:37:53.482Z,30.93
2017-10-01T03:40:21.035Z,31.67
2017-10-01T03:42:48.593Z,31.43
2017-10-01T03:45:16.137Z,30.40
2017-10-01T03:47:43.684Z,33.57
2017-10-01T03:50:11.970Z,31.70
2017-10-01T03:52:39.566Z,31.33
2017-10-01T03:55:07.140Z,29.90
2017-10-01T03:57:35.492Z,29.90
2017-10-01T04:00:03.039Z,29.00
2017-10-01T04:02:31.359Z,29.27
2017-10-01T04:04:58.915Z,30.50
2017-10-01T04:07:26.443Z,27.83
2017-10-01T04:09:54.780Z,27.30
2017-10-01T04:12:22.417Z,28.20
2017-10-01T04:14:49.943Z,26.13
2017-10-01T04:17:18.274Z,25.27
2017-10-01T04:19:45.827Z,27.93
2017-10-01T04:22:14.150Z,28.70
2017-10-01T04:24:41.683Z,26.43
2017-10-01T04:27:09.272Z,27.97
2017-10-01T04:29:36.833Z,26.30
2017-10-01T04:32:04.360Z,26.70
2017-10-01T04:34:32.708Z,26.57
2017-10-01T04:37:00.268Z,26.50
2017-10-01T04:39:27.837Z,27.23
2017-10-01T04:41:55.389Z,25.27
2017-10-01T04:44:22.952Z,27.07
2017-10-01T04:46:50.479Z,27.30
2017-10-01T04:49:18.009Z,27.17
2017-10-01T04:51:45.573Z,26.73
2017-10-01T04:54:13.114Z,25.53
2017-10-01T04:56:40.680Z,28.10
2017-10-01T04:59:08.239Z,25.47
2017-10-01T05:01:35.813Z,24.60
2017-10-01T05:04:03.335Z,23.30
2017-10-01T05:06:30.864Z,22.27
2017-10-01T05:08:58.435Z,23.47
2017-10-01T05:11:25.973Z,23.97
2017-10-01T05:13:53.533Z,22.20
2017-10-01T05:16:21.155Z,23.40
2017-10-01T05:18:48.740Z,20.13
2017-10-01T05:21:16.289Z,21.50
2017-10-01T05:23:43.824Z,20.80
2017-10-01T05:26:11.395Z,22.20
2017-10-01T05:28:38.947Z,21.07
2017-10-01T05:31:06.505Z,19.90
2017-10-01T05:33:34.088Z,20.60
2017-10-01T05:36:02.421Z,19.67
2017-10-01T05:38:29.951Z,18.57
2017-10-01T05:40:57.585Z,18.50
2017-10-01T05:43:25.130Z,20.00
2017-10-01T05:45:52.702Z,18.40
2017-10-01T05:48:20.261Z,17.17
2017-10-01T05:50:47.819Z,18.90
2017-10-01T05:53:16.239Z,17.87
2017-10-01T05:55:43.763Z,16.30
2017-10-01T05:58:12.051Z,16.97
2017-10-01T06:00:41.120Z,14.80
2017-10-01T06:03:08.665Z,16.50
2017-10-01T06:05:36.225Z,13.70
2017-10-01T06:08:03.784Z,13.10
2017-10-01T06:10:31.368Z,13.27
2017-10-01T06:12:58.906Z,15.10
2017-10-01T06:15:26.449Z,12.70
2017-10-01T06:17:54.024Z,12.50
2017-10-01T06:20:21.551Z,11.83
2017-10-01T06:22:49.110Z,11.87
2017-10-01T06:25:16.658Z,9.10
2017-10-01T06:27:44.255Z,8.70
2017-10-01T06:30:11.798Z,9.60
2017-10-01T06:32:39.369Z,7.90
2017-10-01T06:35:06.922Z,7.87
2017-10-01T06:37:34.508Z,7.83
2017-10-01T06:40:02.057Z,8.53
2017-10-01T06:42:29.583Z,7.87
2017-10-01T06:44:57.138Z,7.20
2017-10-01T06:47:24.677Z,6.80
2017-10-01T06:49:52.233Z,7.50
2017-10-01T06:52:19.781Z,7.37
2017-10-01T06:54:47.352Z,7.67
2017-10-01T06:57:15.064Z,7.40
2017-10-01T06:59:42.621Z,7.20
2017-10-01T07:02:10.920Z,6.90
2017-10-01T07:04:38.482Z,6.93
2017-10-01T07:07:06.025Z,7.03
2017-10-01T07:09:33.602Z,6.70
2017-10-01T07:12:01.145Z,6.77
2017-10-01T07:14:28.683Z,7.67
2017-10-01T07:16:57.094Z,6.90
2017-10-01T07:19:24.623Z,6.60
2017-10-01T07:21:52.251Z,6.33
2017-10-01T07:24:19.804Z,6.27
2017-10-01T07:26:47.387Z,7.03
2017-10-01T07:29:14.930Z,6.30
2017-10-01T07:31:42.483Z,6.00
2017-10-01T07:34:10.125Z,5.40
2017-10-01T07:36:37.677Z,4.93
2017-10-01T07:39:05.290Z,5.30
2017-10-01T07:41:32.844Z,4.30
2017-10-01T07:44:00.415Z,4.20
2017-10-01T07:46:27.965Z,5.43
2017-10-01T07:48:55.519Z,5.07
2017-10-01T07:51:23.156Z,4.10
2017-10-01T07:53:50.696Z,4.47
2017-10-01T07:56:18.374Z,4.63
2017-10-01T07:58:45.899Z,4.07
2017-10-01T08:01:14.224Z,3.93
2017-10-01T08:03:41.780Z,4.80
2017-10-01T08:06:09.356Z,3.97
2017-10-01T08:08:36.900Z,4.83
2017-10-01T08:11:04.465Z,4.50
2017-10-01T08:13:32.954Z,5.10
2017-10-01T08:16:00.523Z,3.60
2017-10-01T08:18:28.082Z,4.80
2017-10-01T08:20:55.603Z,4.50
2017-10-01T08:23:23.158Z,4.07
2017-10-01T08:25:50.693Z,3.80
2017-10-01T08:28:19.014Z,4.27
2017-10-01T08:30:46.566Z,4.60
2017-10-01T08:33:14.112Z,4.67
2017-10-01T08:35:41.664Z,3.63
2017-10-01T08:38:09.236Z,3.30
2017-10-01T08:40:36.773Z,4.00
2017-10-01T08:43:04.330Z,4.97
2017-10-01T08:45:31.870Z,3.43
2017-10-01T08:48:00.189Z,3.13
2017-10-01T08:50:27.854Z,3.90
2017-10-01T08:52:55.409Z,3.20
2017-10-01T08:55:22.964Z,3.83
2017-10-01T08:57:50.522Z,3.50
2017-10-01T09:00:18.116Z,2.93
2017-10-01T09:02:45.753Z,3.00
2017-10-01T09:05:13.283Z,3.90
2017-10-01T09:07:40.837Z,3.60
2017-10-01T09:10:09.147Z,3.47
2017-10-01T09:12:36.787Z,3.20
2017-10-01T09:15:04.670Z,3.10
2017-10-01T09:17:32.334Z,2.53
2017-10-01T09:19:59.996Z,4.17
2017-10-01T09:22:27.554Z,4.33
2017-10-01T09:24:55.079Z,3.37
2017-10-01T09:27:23.490Z,3.57
2017-10-01T09:29:51.020Z,3.77
2017-10-01T09:32:18.607Z,2.87
2017-10-01T09:34:46.145Z,3.50
2017-10-01T09:37:13.686Z,3.17
2017-10-01T09:39:42.006Z,3.57
2017-10-01T09:42:09.564Z,3.80
2017-10-01T09:44:37.133Z,3.60
2017-10-01T09:47:04.660Z,3.10
2017-10-01T09:49:32.202Z,3.30
2017-10-01T09:52:00.488Z,2.73
2017-10-01T09:54:28.043Z,3.60
2017-10-01T09:56:56.454Z,2.43
2017-10-01T09:59:23.979Z,2.90
2017-10-01T10:01:52.284Z,2.87
2017-10-01T10:04:20.702Z,2.77
2017-10-01T10:06:48.258Z,2.80
2017-10-01T10:09:15.806Z,3.70
2017-10-01T10:11:43.361Z,2.63
2017-10-01T10:14:10.898Z,3.00
2017-10-01T10:16:38.446Z,2.97
2017-10-01T10:19:06.002Z,3.70
2017-10-01T10:21:33.555Z,4.40
2017-10-01T10:24:01.108Z,2.87
2017-10-01T10:26:28.656Z,2.60
2017-10-01T10:28:56.217Z,2.67
2017-10-01T10:31:23.743Z,2.10
2017-10-01T10:33:51.282Z,2.43
2017-10-01T10:36:18.837Z,2.50
2017-10-01T10:38:46.366Z,2.50
2017-10-01T10:41:13.926Z,2.53
2017-10-01T10:43:41.501Z,2.07
2017-10-01T10:46:09.061Z,2.17
2017-10-01T10:48:36.583Z,2.83
2017-10-01T10:51:04.145Z,3.50
2017-10-01T10:53:31.693Z,2.03
2017-10-01T10:56:00.101Z,2.93
2017-10-01T10:58:27.639Z,2.70
2017-10-01T11:00:55.204Z,2.10
2017-10-01T11:03:22.749Z,2.67
2017-10-01T11:05:51.069Z,1.83
2017-10-01T11:08:18.715Z,2.30
2017-10-01T11:10:46.283Z,2.10
2017-10-01T11:13:13.821Z,2.30
2017-10-01T11:15:41.385Z,1.70
2017-10-01T11:18:08.948Z,1.90
2017-10-01T11:20:36.475Z,2.07
2017-10-01T11:23:04.783Z,1.77
2017-10-01T11:25:32.321Z,1.90
2017-10-01T11:28:00.631Z,2.00
2017-10-01T11:30:28.184Z,2.03
2017-10-01T11:32:55.758Z,1.87
2017-10-01T11:35:23.299Z,1.73
2017-10-01T11:37:50.961Z,1.57
2017-10-01T11:40:18.625Z,1.43
2017-10-01T11:42:46.174Z,2.83
2017-10-01T11:45:13.711Z,2.17
2017-10-01T11:47:42.014Z,1.80
2017-10-01T11:50:09.576Z,2.03
2017-10-01T11:52:37.130Z,2.23
2017-10-01T11:55:04.693Z,5.60
2017-10-01T11:57:32.250Z,1.50
2017-10-01T11:59:59.800Z,2.10
2017-10-01T12:02:27.373Z,1.90
2017-10-01T12:04:54.914Z,2.13
2017-10-01T12:07:22.493Z,1.43
2017-10-01T12:09:50.030Z,1.30
2017-10-01T12:12:17.594Z,1.40
2017-10-01T12:14:45.143Z,1.40
2017-10-01T12:17:12.694Z,1.50
2017-10-01T12:19:41.007Z,1.20
2017-10-01T12:22:08.561Z,1.27
2017-10-01T12:24:36.123Z,1.27
2017-10-01T12:27:03.680Z,1.20
2017-10-01T12:29:31.245Z,1.43
2017-10-01T12:31:58.777Z,1.10
2017-10-01T12:34:26.325Z,1.13
2017-10-01T12:36:54.641Z,1.27
2017-10-01T12:39:22.165Z,1.40
2017-10-01T12:41:49.715Z,1.07
2017-10-01T12:44:20.330Z,1.13
2017-10-01T12:46:52.157Z,1.60
2017-10-01T12:49:20.934Z,1.13
2017-10-01T12:51:50.806Z,1.23
2017-10-01T12:54:23.915Z,1.27
2017-10-01T12:56:51.734Z,1.60
2017-10-01T12:59:20.238Z,1.60
2017-10-01T13:01:54.494Z,1.53
2017-10-01T13:04:23.518Z,1.77
2017-10-01T13:06:51.875Z,1.77
2017-10-01T13:09:19.430Z,1.50
2017-10-01T13:11:48.116Z,1.27
2017-10-01T13:14:15.707Z,1.67
2017-10-01T13:16:44.925Z,1.60
2017-10-01T13:19:13.964Z,1.70
2017-10-01T13:21:42.583Z,1.83
2017-10-01T13:24:11.494Z,1.40
2017-10-01T13:26:39.227Z,1.63
2017-10-01T13:29:06.788Z,1.77
2017-10-01T13:31:34.372Z,2.03
2017-10-01T13:34:01.893Z,1.60
2017-10-01T13:36:29.492Z,1.67
2017-10-01T13:38:57.030Z,1.87
2017-10-01T13:41:24.587Z,1.57
2017-10-01T13:43:52.146Z,1.90
2017-10-01T13:46:19.713Z,1.50
2017-10-01T13:48:47.251Z,2.47
2017-10-01T13:51:14.803Z,1.73
2017-10-01T13:53:42.370Z,1.93
2017-10-01T13:56:09.905Z,1.47
2017-10-01T13:58:38.191Z,1.67
2017-10-01T14:01:06.532Z,2.00
2017-10-01T14:03:34.084Z,2.20
2017-10-01T14:06:01.663Z,2.00
2017-10-01T14:08:29.182Z,2.10
2017-10-01T14:10:56.760Z,2.03
2017-10-01T14:13:24.287Z,2.10
2017-10-01T14:15:51.825Z,2.10
2017-10-01T14:18:20.167Z,1.97
2017-10-01T14:20:47.705Z,2.60
2017-10-01T14:23:15.249Z,2.13
2017-10-01T14:25:42.775Z,2.20
2017-10-01T14:28:11.089Z,1.70
2017-10-01T14:33:45.422Z,2.00
2017-10-01T14:36:12.961Z,2.13
2017-10-01T14:38:40.502Z,1.87
2017-10-01T14:41:08.918Z,2.00
2017-10-01T14:43:36.471Z,2.07
2017-10-01T14:46:04.054Z,1.67
2017-10-01T14:48:31.589Z,2.13
2017-10-01T14:50:59.149Z,2.10
2017-10-01T14:53:26.704Z,2.13
2017-10-01T14:55:54.267Z,2.97
2017-10-01T14:58:21.832Z,2.17
2017-10-01T15:00:49.384Z,2.30
2017-10-01T15:03:16.956Z,2.27
2017-10-01T15:05:44.501Z,2.60
2017-10-01T15:08:12.074Z,2.50
2017-10-01T15:10:39.595Z,2.37
2017-10-01T15:13:07.893Z,2.40
2017-10-01T15:15:35.476Z,2.27
2017-10-01T15:18:03.029Z,2.53
2017-10-01T15:20:30.589Z,2.10
2017-10-01T15:22:58.117Z,1.90
2017-10-01T15:25:25.663Z,2.50
2017-10-01T15:27:53.956Z,2.27
2017-10-01T15:30:21.493Z,3.07
2017-10-01T15:32:49.817Z,1.90
2017-10-01T15:35:17.370Z,2.30
2017-10-01T15:37:44.943Z,2.70
2017-10-01T15:40:12.488Z,2.00
2017-10-01T15:42:40.031Z,1.93
2017-10-01T15:45:07.583Z,2.00
2017-10-01T15:47:35.145Z,2.00
2017-10-01T15:50:02.759Z,1.93
2017-10-01T15:52:30.799Z,2.30
2017-10-01T15:54:58.665Z,2.30
2017-10-01T15:57:26.532Z,2.53
2017-10-01T15:59:54.502Z,1.80
2017-10-01T16:02:23.699Z,2.22
2017-10-01T16:04:51.253Z,1.60
2017-10-01T16:07:18.932Z,2.13
2017-10-01T16:09:46.509Z,1.90
2017-10-01T16:12:14.211Z,1.97
2017-10-01T16:14:42.527Z,2.30
2017-10-01T16:17:10.080Z,2.07
2017-10-01T16:19:37.771Z,2.00
2017-10-01T16:22:05.307Z,2.87
2017-10-01T16:24:32.846Z,2.20
2017-10-01T16:27:00.419Z,1.80
2017-10-01T16:29:27.957Z,2.63
2017-10-01T16:31:55.534Z,2.53
2017-10-01T16:34:23.074Z,2.30
2017-10-01T16:36:50.599Z,2.57
2017-10-01T16:39:18.149Z,2.67
2017-10-01T16:41:45.690Z,2.17
2017-10-01T16:44:13.227Z,2.60
2017-10-01T16:46:40.787Z,2.03
2017-10-01T16:49:08.335Z,2.30
2017-10-01T16:51:35.855Z,2.10
2017-10-01T16:54:03.413Z,2.63
2017-10-01T16:56:30.968Z,2.70
2017-10-01T16:58:58.526Z,1.93
2017-10-01T17:01:26.043Z,2.80
2017-10-01T17:03:53.618Z,2.80
2017-10-01T17:06:21.154Z,3.37
2017-10-01T17:08:48.721Z,2.60
2017-10-01T17:11:16.275Z,2.60
2017-10-01T17:13:43.936Z,2.60
2017-10-01T17:16:11.494Z,2.30
2017-10-01T17:18:39.037Z,2.73
2017-10-01T17:21:06.605Z,2.17
2017-10-01T17:23:34.146Z,2.90
2017-10-01T17:26:02.454Z,3.00
2017-10-01T17:28:30.014Z,3.30
2017-10-01T17:30:57.570Z,2.67
2017-10-01T17:33:25.159Z,2.83
2017-10-01T17:35:54.217Z,3.57
2017-10-01T17:38:21.779Z,2.90
2017-10-01T17:40:49.344Z,3.10
2017-10-01T17:43:16.900Z,3.53
2017-10-01T17:45:44.577Z,3.60
2017-10-01T17:48:12.104Z,3.00
2017-10-01T17:50:39.661Z,3.40
2017-10-01T17:53:07.187Z,4.37
2017-10-01T17:55:36.254Z,3.83
2017-10-01T17:58:03.866Z,4.00
2017-10-01T18:00:32.169Z,3.67
2017-10-01T18:02:59.715Z,3.40
2017-10-01T18:05:27.249Z,3.93
2017-10-01T18:07:55.577Z,3.83
2017-10-01T18:10:23.235Z,3.80
2017-10-01T18:12:50.788Z,4.40
2017-10-01T18:15:18.344Z,4.43
2017-10-01T18:17:45.913Z,4.57
2017-10-01T18:20:13.453Z,5.10
2017-10-01T18:22:41.025Z,4.37
2017-10-01T18:25:08.598Z,5.23
2017-10-01T18:27:36.138Z,4.83
2017-10-01T18:30:03.720Z,4.80
2017-10-01T18:32:31.277Z,4.50
2017-10-01T18:34:58.922Z,4.70
2017-10-01T18:37:26.476Z,5.40
2017-10-01T18:39:54.142Z,5.00
2017-10-01T18:42:21.756Z,5.50
2017-10-01T18:44:50.061Z,5.23
2017-10-01T18:47:17.639Z,5.90
2017-10-01T18:49:45.167Z,5.37
2017-10-01T18:52:13.575Z,5.00
2017-10-01T18:54:41.116Z,5.60
2017-10-01T18:57:08.670Z,5.70
2017-10-01T18:59:36.246Z,5.53
2017-10-01T19:02:03.790Z,5.63
2017-10-01T19:04:31.475Z,5.33
2017-10-01T19:06:59.005Z,5.40
2017-10-01T19:09:27.342Z,5.73
2017-10-01T19:11:54.902Z,5.90
2017-10-01T19:14:22.508Z,5.10
2017-10-01T19:16:50.087Z,6.17
2017-10-01T19:19:17.629Z,5.53
2017-10-01T19:21:45.413Z,6.13
2017-10-01T19:24:12.974Z,5.50
2017-10-01T19:26:40.551Z,4.93
2017-10-01T19:29:08.090Z,4.53
2017-10-01T19:31:35.763Z,5.30
2017-10-01T19:34:03.417Z,6.73
2017-10-01T19:36:30.964Z,6.63
2017-10-01T19:38:58.636Z,6.73
2017-10-01T19:41:26.168Z,9.50
2017-10-01T19:43:53.754Z,7.33
2017-10-01T19:46:21.347Z,6.67
2017-10-01T19:48:48.929Z,6.37
2017-10-01T19:51:17.246Z,6.00
2017-10-01T19:53:44.821Z,5.77
2017-10-01T19:56:12.365Z,5.87
2017-10-01T19:58:39.926Z,5.33
2017-10-01T20:01:07.466Z,5.87
2017-10-01T20:03:35.028Z,4.97
2017-10-01T20:06:02.595Z,5.53
2017-10-01T20:08:30.267Z,4.60
2017-10-01T20:10:57.834Z,5.23
2017-10-01T20:13:25.374Z,4.07
2017-10-01T20:15:52.930Z,3.23
2017-10-01T20:18:20.492Z,4.27
2017-10-01T20:20:49.236Z,3.90
2017-10-01T20:23:17.544Z,2.93
2017-10-01T20:34:19.073Z,3.53
2017-10-01T20:36:46.585Z,3.60
2017-10-01T20:39:14.868Z,3.70
2017-10-01T20:41:43.186Z,3.50
2017-10-01T20:44:10.690Z,3.37
2017-10-01T20:46:38.186Z,3.20
2017-10-01T20:49:05.717Z,3.80
2017-10-01T20:51:34.037Z,5.00
2017-10-01T20:54:01.548Z,3.77
2017-10-01T20:56:30.574Z,3.73
2017-10-01T20:58:58.098Z,4.20
2017-10-01T21:01:25.599Z,4.17
2017-10-01T21:03:53.099Z,3.90
2017-10-01T21:06:20.615Z,4.13
2017-10-01T21:08:48.137Z,3.87
2017-10-01T21:11:16.452Z,3.93
2017-10-01T21:13:44.020Z,4.00
2017-10-01T21:16:11.556Z,4.27
2017-10-01T21:18:39.051Z,3.50
2017-10-01T21:21:06.544Z,3.20
2017-10-01T21:23:34.090Z,4.63
2017-10-01T21:26:01.593Z,4.00
2017-10-01T21:28:29.116Z,4.50
2017-10-01T21:30:56.625Z,4.27
2017-10-01T21:33:24.179Z,3.63
2017-10-01T21:35:51.670Z,4.20
2017-10-01T21:38:19.170Z,4.53
2017-10-01T21:40:47.469Z,4.60
2017-10-01T21:43:14.962Z,4.60
2017-10-01T21:45:42.485Z,4.10
2017-10-01T21:48:09.992Z,5.20
2017-10-01T21:50:37.507Z,4.07
2017-10-01T21:53:05.007Z,3.80
2017-10-01T21:55:32.519Z,4.47
2017-10-01T21:58:00.085Z,4.93
2017-10-01T22:00:27.593Z,4.97
2017-10-01T22:02:55.870Z,4.53
2017-10-01T22:05:24.128Z,4.57
2017-10-01T22:07:51.643Z,4.80
2017-10-01T22:10:19.144Z,3.40
2017-10-01T22:12:46.667Z,4.13
2017-10-01T22:15:14.173Z,4.60
2017-10-01T22:17:43.174Z,5.33
2017-10-01T22:20:11.447Z,4.53
2017-10-01T22:22:39.725Z,4.90
2017-10-01T22:25:08.007Z,5.07
2017-10-01T22:27:36.264Z,4.73
2017-10-01T22:30:04.538Z,5.37
2017-10-01T22:32:32.030Z,4.37
2017-10-01T22:34:59.558Z,4.93
2017-10-01T22:37:27.833Z,4.50
2017-10-01T22:39:55.369Z,5.03
2017-10-01T22:42:22.867Z,5.17
2017-10-01T22:44:51.127Z,4.37
2017-10-01T22:47:18.653Z,5.10
2017-10-01T22:49:46.165Z,5.13
2017-10-01T22:52:14.542Z,4.30
2017-10-01T22:54:42.846Z,5.27
2017-10-01T22:57:10.362Z,4.00
2017-10-01T22:59:37.860Z,5.23
2017-10-01T23:02:05.368Z,4.63
2017-10-01T23:04:32.875Z,4.63
2017-10-01T23:07:00.442Z,3.90
2017-10-01T23:09:27.969Z,3.97
2017-10-01T23:11:56.227Z,4.43
2017-10-01T23:14:24.549Z,4.73
2017-10-01T23:16:52.040Z,3.40
2017-10-01T23:19:19.580Z,3.83
2017-10-01T23:21:47.085Z,3.40
2017-10-01T23:24:15.351Z,3.30
2017-10-01T23:26:43.653Z,3.33
2017-10-01T23:29:11.915Z,2.87
2017-10-01T23:31:40.207Z,3.27
2017-10-01T23:34:07.735Z,2.97
2017-10-01T23:36:36.037Z,3.40
2017-10-01T23:39:03.540Z,2.63
2017-10-01T23:41:31.085Z,3.53
2017-10-01T23:43:58.590Z,2.43
2017-10-01T23:46:27.588Z,2.50
2017-10-01T23:48:55.881Z,2.57
2017-10-01T23:51:23.383Z,3.17
2017-10-01T23:53:50.925Z,2.63
2017-10-01T23:56:18.667Z,2.53
2017-10-01T23:58:46.172Z,2.90
